Time;durP1;ratioP1;P1;durP2;ratioP2;P2;SDS_P1;SDS_P2;PMS_P1;PMS_P2;Temp;Humidity;BMP_temperature;BMP_pressure;BME280_temperature;BME280_humidity;BME280_pressure;Samples;Min_cycle;Max_cycle;Signal;HPM_P1;HPM_P2
2023/07/28 00:01:42;;;;;;;4.65;3.95;;;;;;;17.95;100.00;100353.81;5117382;28;20469;-62
2023/07/28 00:04:10;;;;;;;4.13;3.47;;;;;;;17.96;100.00;100347.16;5115365;28;20491;-65
2023/07/28 00:06:38;;;;;;;6.45;4.10;;;;;;;17.96;100.00;100358.19;5116508;28;20052;-62
2023/07/28 00:09:06;;;;;;;4.18;2.80;;;;;;;17.97;100.00;100357.06;5118057;28;20403;-62
2023/07/28 00:11:34;;;;;;;4.03;3.58;;;;;;;17.98;100.00;100346.84;5115541;28;20491;-62
2023/07/28 00:14:02;;;;;;;5.10;4.20;;;;;;;17.98;100.00;100338.56;5101164;28;20048;-65
2023/07/28 00:16:30;;;;;;;4.40;3.97;;;;;;;17.97;100.00;100340.53;5115607;28;20404;-64
2023/07/28 00:18:57;;;;;;;5.05;3.95;;;;;;;17.98;100.00;100335.81;5117020;28;20042;-62
2023/07/28 00:21:26;;;;;;;8.95;4.55;;;;;;;17.99;100.00;100342.94;5116879;28;20048;-65
2023/07/28 00:23:53;;;;;;;9.68;5.25;;;;;;;17.97;100.00;100339.72;5116044;28;20117;-63
2023/07/28 00:26:21;;;;;;;7.75;5.18;;;;;;;17.95;100.00;100347.50;5115285;28;20048;-62
2023/07/28 00:28:49;;;;;;;6.65;4.50;;;;;;;17.94;100.00;100337.59;5117104;28;20078;-62
2023/07/28 00:31:17;;;;;;;6.80;5.28;;;;;;;17.98;100.00;100346.84;5116722;28;20066;-63
2023/07/28 00:33:44;;;;;;;8.40;5.63;;;;;;;17.96;100.00;100341.63;5081909;28;20510;-62
2023/07/28 00:36:12;;;;;;;6.97;4.60;;;;;;;17.93;100.00;100347.81;5096352;28;20050;-62
2023/07/28 00:38:40;;;;;;;9.35;4.53;;;;;;;17.92;100.00;100343.47;5096322;28;20048;-62
2023/07/28 00:41:08;;;;;;;8.38;5.40;;;;;;;17.93;100.00;100349.78;5079328;28;20369;-62
2023/07/28 00:43:36;;;;;;;5.40;4.18;;;;;;;17.92;100.00;100345.38;5099575;28;20039;-61
2023/07/28 00:46:04;;;;;;;5.45;4.47;;;;;;;17.92;100.00;100348.13;5126225;28;20158;-62
2023/07/28 00:48:31;;;;;;;8.50;4.80;;;;;;;17.93;100.00;100349.78;5115608;28;20040;-63
2023/07/28 00:50:59;;;;;;;3.80;3.33;;;;;;;17.92;100.00;100348.97;5103349;28;20142;-63
2023/07/28 00:53:27;;;;;;;5.40;3.90;;;;;;;17.92;100.00;100348.13;5114054;27;20400;-63
2023/07/28 00:55:56;;;;;;;3.95;3.50;;;;;;;17.92;100.00;100353.66;5104986;28;20055;-63
2023/07/28 00:58:24;;;;;;;6.30;4.13;;;;;;;17.93;100.00;100344.25;5116114;28;20047;-62
2023/07/28 01:00:51;;;;;;;7.75;4.57;;;;;;;17.92;100.00;100348.13;5100792;28;20058;-62
2023/07/28 01:03:21;;;;;;;7.20;4.50;;;;;;;17.91;100.00;100344.56;5115259;28;20073;-62
2023/07/28 01:06:07;;;;;;;6.15;4.53;;;;;;;17.91;100.00;100357.56;5097801;28;20054;-64
2023/07/28 01:08:47;;;;;;;7.72;4.88;;;;;;;17.90;100.00;100353.19;5112533;28;20502;-62
2023/07/28 01:11:15;;;;;;;9.10;5.05;;;;;;;17.90;100.00;100355.94;5101281;28;20051;-62
2023/07/28 01:13:43;;;;;;;6.53;4.40;;;;;;;17.88;100.00;100365.34;5116044;28;20104;-63
2023/07/28 01:16:11;;;;;;;6.20;4.82;;;;;;;17.87;100.00;100363.72;5116317;27;20044;-63
2023/07/28 01:18:39;;;;;;;6.05;4.75;;;;;;;17.88;100.00;100362.59;5115631;28;20077;-63
2023/07/28 01:21:09;;;;;;;7.45;4.88;;;;;;;17.90;100.00;100366.97;5113288;28;20052;-63
2023/07/28 01:23:42;;;;;;;7.40;4.38;;;;;;;17.90;100.00;100366.97;5112904;28;20054;-63
2023/07/28 01:26:11;;;;;;;7.20;5.07;;;;;;;17.88;100.00;100359.81;5097312;28;20112;-62
2023/07/28 01:28:42;;;;;;;4.53;3.65;;;;;;;17.90;100.00;100355.94;5097481;28;20491;-62
2023/07/28 01:31:10;;;;;;;6.57;5.07;;;;;;;17.90;100.00;100361.47;5114076;28;20047;-62
2023/07/28 01:33:38;;;;;;;8.18;5.38;;;;;;;17.91;100.00;100368.59;5114315;28;20050;-62
2023/07/28 01:36:06;;;;;;;8.52;5.53;;;;;;;17.91;100.00;100363.06;5105950;28;20044;-62
2023/07/28 01:38:34;;;;;;;6.47;4.97;;;;;;;17.91;100.00;100365.81;5094920;28;20058;-63
2023/07/28 01:41:01;;;;;;;7.10;5.68;;;;;;;17.90;100.00;100361.47;5105022;28;20056;-62
2023/07/28 01:43:29;;;;;;;7.15;4.70;;;;;;;17.87;100.00;100372.00;5099920;27;20526;-61
2023/07/28 01:45:57;;;;;;;6.95;5.65;;;;;;;17.88;100.00;100370.06;5094848;28;20035;-61
2023/07/28 01:48:25;;;;;;;4.72;4.13;;;;;;;17.88;100.00;100365.34;5094465;28;20044;-63
2023/07/28 01:50:53;;;;;;;6.97;5.63;;;;;;;17.88;100.00;100370.84;5101787;28;20039;-61
2023/07/28 01:53:21;;;;;;;7.72;5.75;;;;;;;17.89;100.00;100374.41;5115566;28;20552;-61
2023/07/28 01:55:49;;;;;;;6.80;5.40;;;;;;;17.87;100.00;100369.25;5114296;28;20046;-63
2023/07/28 01:58:16;;;;;;;7.07;5.05;;;;;;;17.87;100.00;100372.00;5095301;28;20056;-63
2023/07/28 02:00:46;;;;;;;8.45;6.20;;;;;;;17.88;100.00;100373.59;5080881;28;20444;-62
2023/07/28 02:03:13;;;;;;;5.88;4.78;;;;;;;17.87;100.00;100369.25;5095909;28;20167;-63
2023/07/28 02:05:41;;;;;;;8.30;6.50;;;;;;;17.87;100.00;100374.75;5113946;28;20407;-63
2023/07/28 02:08:09;;;;;;;8.50;6.07;;;;;;;17.86;100.00;100362.09;5113058;28;20056;-63
2023/07/28 02:10:37;;;;;;;5.05;4.32;;;;;;;17.87;100.00;100363.72;5114812;28;20070;-62
2023/07/28 02:13:05;;;;;;;8.40;5.38;;;;;;;17.87;100.00;100358.22;5113412;28;20051;-63
2023/07/28 02:15:32;;;;;;;8.07;5.20;;;;;;;17.88;100.00;100354.31;5113282;28;20044;-64
2023/07/28 02:18:00;;;;;;;8.45;6.70;;;;;;;17.87;100.00;100358.22;5111695;28;20043;-64
2023/07/28 02:20:28;;;;;;;8.57;6.65;;;;;;;17.87;100.00;100358.22;5096473;28;20545;-63
2023/07/28 02:22:56;;;;;;;7.88;5.93;;;;;;;17.85;100.00;100363.25;5113907;28;20044;-63
2023/07/28 02:25:24;;;;;;;8.68;6.45;;;;;;;17.86;100.00;100355.78;5113371;28;20103;-62
2023/07/28 02:27:51;;;;;;;8.70;6.40;;;;;;;17.85;100.00;100366.00;5114229;28;20086;-62
2023/07/28 02:30:19;;;;;;;9.35;6.63;;;;;;;17.86;100.00;100362.09;5091702;28;20047;-61
2023/07/28 02:32:47;;;;;;;10.18;6.70;;;;;;;17.87;100.00;100357.38;5112097;28;20052;-62
2023/07/28 02:35:15;;;;;;;9.70;6.05;;;;;;;17.87;100.00;100360.16;5095996;28;20043;-64
2023/07/28 02:37:45;;;;;;;6.00;3.70;;;;;;;17.87;100.00;100357.38;5113121;28;20036;-62
2023/07/28 02:40:13;;;;;;;5.65;4.47;;;;;;;17.89;100.00;100357.88;5111043;28;20054;-62
2023/07/28 02:42:40;;;;;;;6.93;5.40;;;;;;;17.90;100.00;100361.47;5094338;28;20059;-62
2023/07/28 02:45:09;;;;;;;9.00;6.22;;;;;;;17.91;100.00;100358.34;5113173;28;20052;-63
2023/07/28 02:47:38;;;;;;;8.15;5.82;;;;;;;17.92;100.00;100361.91;5112944;28;20074;-61
2023/07/28 02:50:06;;;;;;;8.85;7.22;;;;;;;17.92;100.00;100359.16;5110175;28;20050;-65
2023/07/28 02:52:34;;;;;;;9.30;7.15;;;;;;;17.92;100.00;100370.19;5113254;28;20039;-62
2023/07/28 02:55:02;;;;;;;10.55;7.60;;;;;;;17.91;100.00;100366.63;5095035;28;20039;-63
2023/07/28 02:57:30;;;;;;;10.48;7.40;;;;;;;17.89;100.00;100374.41;5096643;28;20059;-61
2023/07/28 02:59:58;;;;;;;6.90;4.68;;;;;;;17.90;100.00;100378.00;5110546;28;20048;-63
2023/07/28 03:02:26;;;;;;;9.50;6.85;;;;;;;17.90;100.00;100378.81;5096403;28;20051;-62
2023/07/28 03:04:57;;;;;;;9.05;6.80;;;;;;;17.90;100.00;100383.50;5096513;28;20046;-63
2023/07/28 03:07:47;;;;;;;9.82;7.72;;;;;;;17.86;100.00;100386.91;5112959;28;20054;-62
2023/07/28 03:10:16;;;;;;;11.77;8.40;;;;;;;17.86;100.00;100386.91;5115143;28;20078;-63
2023/07/28 03:12:45;;;;;;;7.72;5.88;;;;;;;17.85;100.00;100388.06;5117931;28;20048;-62
2023/07/28 03:15:12;;;;;;;9.00;6.93;;;;;;;17.87;100.00;100388.53;5117062;28;20092;-62
2023/07/28 03:17:40;;;;;;;10.43;6.65;;;;;;;17.88;100.00;100381.06;5099803;28;20043;-62
2023/07/28 03:20:09;;;;;;;8.80;5.80;;;;;;;17.87;100.00;100380.28;5115961;28;20047;-62
2023/07/28 03:22:36;;;;;;;12.07;7.82;;;;;;;17.88;100.00;100381.88;5082651;28;20507;-62
2023/07/28 03:25:04;;;;;;;14.40;8.70;;;;;;;17.86;100.00;100378.63;5100040;28;20055;-62
2023/07/28 03:27:32;;;;;;;12.88;8.48;;;;;;;17.87;100.00;100376.69;5118874;28;20044;-64
2023/07/28 03:30:01;;;;;;;11.05;7.32;;;;;;;17.85;100.00;100379.78;5117563;28;20559;-64
2023/07/28 03:32:29;;;;;;;12.20;8.55;;;;;;;17.86;100.00;100391.63;5093808;28;20043;-64
2023/07/28 03:34:56;;;;;;;11.52;8.18;;;;;;;17.84;100.00;100386.41;5097113;28;20415;-64
2023/07/28 03:37:24;;;;;;;11.10;7.57;;;;;;;17.85;100.00;100388.06;5086365;28;20047;-62
2023/07/28 03:39:53;;;;;;;14.73;10.35;;;;;;;17.84;100.00;100380.91;5116440;28;20036;-62
2023/07/28 03:42:26;;;;;;;11.73;8.77;;;;;;;17.84;100.00;100386.41;5114688;28;20061;-63
2023/07/28 03:44:54;;;;;;;12.15;8.68;;;;;;;17.84;100.00;100380.91;5095554;28;20044;-62
2023/07/28 03:47:21;;;;;;;9.75;6.50;;;;;;;17.85;100.00;100392.75;5097191;28;20054;-62
2023/07/28 03:49:49;;;;;;;10.18;7.30;;;;;;;17.85;100.00;100387.25;5098465;28;20400;-63
2023/07/28 03:52:17;;;;;;;10.23;5.93;;;;;;;17.85;100.00;100398.28;5116534;28;20047;-64
2023/07/28 03:54:45;;;;;;;11.70;8.48;;;;;;;17.85;100.00;100401.84;5097146;28;20044;-63
2023/07/28 03:57:12;;;;;;;11.73;7.22;;;;;;;17.86;100.00;100399.88;5104983;28;20047;-62
2023/07/28 03:59:40;;;;;;;14.38;10.23;;;;;;;17.87;100.00;100413.34;5117208;28;20044;-62
2023/07/28 04:02:08;;;;;;;14.50;9.27;;;;;;;17.87;100.00;100412.50;5099032;28;20507;-61
2023/07/28 04:04:37;;;;;;;16.23;9.95;;;;;;;17.87;100.00;100418.84;5113804;28;20096;-62
2023/07/28 04:07:05;;;;;;;12.85;8.30;;;;;;;17.87;100.00;100412.50;5099433;28;20040;-64
2023/07/28 04:09:32;;;;;;;16.42;11.60;;;;;;;17.87;100.00;100407.84;5114081;28;20058;-64
2023/07/28 04:12:00;;;;;;;11.73;8.18;;;;;;;17.87;100.00;100402.31;5115568;28;20040;-64
2023/07/28 04:14:28;;;;;;;14.07;10.50;;;;;;;17.88;100.00;100412.19;5115339;28;20051;-62
2023/07/28 04:16:56;;;;;;;13.60;9.13;;;;;;;17.86;100.00;100408.94;5098472;28;20055;-62
2023/07/28 04:19:23;;;;;;;10.55;6.28;;;;;;;17.86;100.00;100411.72;5117308;28;20047;-62
2023/07/28 04:21:51;;;;;;;15.10;9.82;;;;;;;17.86;100.00;100414.47;5113343;28;20047;-62
2023/07/28 04:24:19;;;;;;;15.63;10.30;;;;;;;17.89;100.00;100415.75;5095095;28;20047;-61
2023/07/28 04:26:49;;;;;;;14.93;9.63;;;;;;;17.88;100.00;100412.19;5062385;28;20062;-62
2023/07/28 04:29:18;;;;;;;15.50;10.38;;;;;;;17.88;100.00;100416.91;5086260;28;20044;-64
2023/07/28 04:31:46;;;;;;;13.18;8.27;;;;;;;17.90;100.00;100416.59;5095524;28;20437;-62
2023/07/28 04:34:19;;;;;;;15.13;8.98;;;;;;;17.90;100.00;100413.84;5096573;28;20044;-65
2023/07/28 04:37:07;;;;;;;10.95;6.13;;;;;;;17.91;100.00;100412.69;5095501;28;20051;-63
2023/07/28 04:39:53;;;;;;;11.63;5.75;;;;;;;17.91;100.00;100419.00;5106808;28;20502;-63
2023/07/28 04:42:21;;;;;;;11.95;6.97;;;;;;;17.96;100.00;100426.28;5085258;28;20138;-63
2023/07/28 04:44:50;;;;;;;16.70;11.30;;;;;;;17.97;100.00;100411.38;5103780;28;20108;-62
2023/07/28 04:47:19;;;;;;;12.43;8.85;;;;;;;17.96;100.00;100418.03;5114328;28;20055;-61
2023/07/28 04:49:47;;;;;;;17.30;12.50;;;;;;;17.97;100.00;100411.38;5111860;28;20036;-63
2023/07/28 04:52:40;;;;;;;18.48;12.52;;;;;;;17.98;100.00;100413.00;5105174;28;20492;-62
2023/07/28 04:55:37;;;;;;;17.50;11.43;;;;;;;17.96;100.00;100410.56;5099216;28;20506;-62
2023/07/28 04:58:05;;;;;;;19.35;12.30;;;;;;;17.95;100.00;100408.16;5095179;28;20449;-62
2023/07/28 05:00:45;;;;;;;20.42;13.40;;;;;;;17.96;100.00;100420.78;5111539;28;20047;-63
2023/07/28 05:03:12;;;;;;;20.42;11.98;;;;;;;17.93;100.00;100424.19;5115986;28;20050;-64
2023/07/28 05:05:47;;;;;;;18.35;13.02;;;;;;;17.91;100.00;100424.50;5099372;28;20506;-63
2023/07/28 05:08:17;;;;;;;21.60;12.13;;;;;;;17.90;100.00;100424.84;5096497;28;20048;-61
2023/07/28 05:10:45;;;;;;;17.88;12.27;;;;;;;17.90;100.00;100427.63;5080221;28;20045;-63
2023/07/28 05:13:14;;;;;;;20.45;12.75;;;;;;;17.88;100.00;100430.69;5083034;28;20095;-64
2023/07/28 05:15:50;;;;;;;17.58;12.70;;;;;;;17.88;100.00;100430.69;5111762;28;20132;-63
2023/07/28 05:18:34;;;;;;;18.15;12.73;;;;;;;17.90;100.00;100433.13;5106145;28;20111;-63
2023/07/28 05:21:22;;;;;;;16.17;10.68;;;;;;;17.89;100.00;100437.81;5119719;28;20043;-63
2023/07/28 05:23:50;;;;;;;18.15;11.15;;;;;;;17.91;100.00;100452.06;5122602;28;20039;-64
2023/07/28 05:26:18;;;;;;;22.45;14.23;;;;;;;17.92;100.00;100452.88;5125146;28;20058;-62
2023/07/28 05:28:46;;;;;;;21.33;13.00;;;;;;;17.93;100.00;100457.28;5120974;28;20519;-65
2023/07/28 05:31:15;;;;;;;19.25;12.70;;;;;;;17.92;100.00;100455.63;5115008;28;20059;-62
2023/07/28 05:33:43;;;;;;;20.85;13.73;;;;;;;17.92;100.00;100458.38;5113982;28;20043;-62
2023/07/28 05:36:11;;;;;;;21.05;12.50;;;;;;;17.92;100.00;100455.63;5114698;28;20526;-64
2023/07/28 05:38:39;;;;;;;20.15;13.38;;;;;;;17.93;100.00;100460.03;5112749;28;20043;-64
2023/07/28 05:41:07;;;;;;;20.42;14.05;;;;;;;17.92;100.00;100463.91;5100969;28;20058;-63
2023/07/28 05:43:35;;;;;;;17.90;9.57;;;;;;;17.92;100.00;100463.91;5076293;28;20059;-65
2023/07/28 05:46:03;;;;;;;13.40;9.05;;;;;;;17.93;100.00;100463.59;5076447;28;20052;-63
2023/07/28 05:48:34;;;;;;;19.35;12.73;;;;;;;17.95;100.00;100464.06;4373332;28;10000455;-63
2023/07/28 05:51:02;;;;;;;18.30;11.23;;;;;;;17.96;100.00;100467.63;5067526;28;20117;-64
2023/07/28 05:53:30;;;;;;;16.55;11.07;;;;;;;17.97;100.00;100470.06;5055934;28;20128;-62
2023/07/28 05:56:04;;;;;;;16.00;10.10;;;;;;;17.99;100.00;100472.50;5072396;28;20058;-64
2023/07/28 05:58:33;;;;;;;17.35;11.20;;;;;;;18.02;100.00;100474.63;5090418;28;20043;-65
2023/07/28 06:01:01;;;;;;;18.40;12.65;;;;;;;18.05;100.00;100479.47;5071657;28;20071;-63
2023/07/28 06:03:48;;;;;;;20.98;13.70;;;;;;;18.08;100.00;100484.31;5061242;28;20403;-64
2023/07/28 06:06:22;;;;;;;17.90;12.35;;;;;;;18.07;100.00;100478.00;5072552;28;20118;-65
2023/07/28 06:08:49;;;;;;;23.50;14.40;;;;;;;18.06;100.00;100479.16;5056654;28;20058;-65
2023/07/28 06:11:17;;;;;;;18.52;13.27;;;;;;;18.06;100.00;100476.41;5069996;28;20090;-63
2023/07/28 06:13:46;;;;;;;17.48;11.77;;;;;;;18.06;100.00;100472.81;5070562;28;20484;-64
2023/07/28 06:16:15;;;;;;;17.67;11.48;;;;;;;18.07;100.00;100478.00;5055863;28;20052;-65
2023/07/28 06:18:44;;;;;;;24.58;14.68;;;;;;;18.10;100.00;100482.06;5072492;28;20412;-64
2023/07/28 06:21:19;;;;;;;20.70;13.20;;;;;;;18.10;100.00;100482.06;5064710;28;20052;-64
2023/07/28 06:23:47;;;;;;;20.75;12.07;;;;;;;18.09;100.00;100486.75;5079334;28;20487;-64
2023/07/28 06:26:14;;;;;;;23.52;14.25;;;;;;;18.09;100.00;100483.19;5070356;28;20047;-66
2023/07/28 06:28:42;;;;;;;17.58;11.80;;;;;;;18.10;100.00;100487.56;5072380;28;20765;-64
2023/07/28 06:31:10;;;;;;;14.20;8.13;;;;;;;18.13;100.00;100486.09;5072394;28;20066;-66
2023/07/28 06:33:38;;;;;;;18.35;11.88;;;;;;;18.17;100.00;100482.38;5055618;28;20580;-64
2023/07/28 06:36:07;;;;;;;18.73;12.98;;;;;;;18.21;100.00;100486.09;5073730;28;20428;-63
2023/07/28 06:38:34;;;;;;;14.25;9.55;;;;;;;18.25;100.00;100489.00;5057529;28;20488;-63
2023/07/28 06:41:02;;;;;;;19.58;12.82;;;;;;;18.26;100.00;100493.38;5078214;28;20047;-63
2023/07/28 06:43:30;;;;;;;13.38;9.27;;;;;;;18.25;100.00;100495.31;5078554;28;20052;-63
2023/07/28 06:46:01;;;;;;;19.73;13.40;;;;;;;18.27;100.00;100495.00;5096013;28;20052;-63
2023/07/28 06:48:29;;;;;;;24.10;15.00;;;;;;;18.27;100.00;100503.25;5096120;28;20088;-62
2023/07/28 06:50:57;;;;;;;20.20;13.45;;;;;;;18.26;100.00;100496.13;5114279;28;20077;-62
2023/07/28 06:53:25;;;;;;;10.98;7.63;;;;;;;18.26;100.00;100504.41;5113923;28;20035;-63
2023/07/28 06:55:53;;;;;;;15.70;12.05;;;;;;;18.26;100.00;100507.97;5114313;28;20160;-63
2023/07/28 06:58:23;;;;;;;29.58;20.88;;;;;;;18.27;100.00;100520.63;5100187;28;20048;-63
2023/07/28 07:00:51;;;;;;;25.33;18.15;;;;;;;18.25;100.00;100514.63;5078898;28;20494;-63
2023/07/28 07:03:19;;;;;;;27.23;17.98;;;;;;;18.29;100.00;100517.53;5114137;28;20048;-61
2023/07/28 07:05:47;;;;;;;24.17;15.52;;;;;;;18.29;100.00;100521.09;5079384;28;20058;-63
2023/07/28 07:08:15;;;;;;;28.02;21.30;;;;;;;18.33;100.00;100525.97;5114111;28;20054;-64
2023/07/28 07:10:52;;;;;;;27.33;16.63;;;;;;;18.34;100.00;100530.34;5095316;28;20059;-62
2023/07/28 07:13:20;;;;;;;25.77;18.67;;;;;;;18.35;100.00;100527.28;5111728;28;20048;-63
2023/07/28 07:15:48;;;;;;;35.22;25.23;;;;;;;18.35;100.00;100531.97;5096155;28;20051;-63
2023/07/28 07:18:16;;;;;;;39.47;28.38;;;;;;;18.35;100.00;100531.97;5114355;28;20062;-64
2023/07/28 07:20:44;;;;;;;35.70;26.27;;;;;;;18.36;100.00;100539.13;5085331;28;20109;-63
2023/07/28 07:23:12;;;;;;;37.88;20.17;;;;;;;18.35;100.00;100543.84;5095452;28;20044;-64
2023/07/28 07:25:40;;;;;;;38.00;28.90;;;;;;;18.39;100.00;100538.44;5095923;28;20043;-63
2023/07/28 07:28:09;;;;;;;39.90;26.88;;;;;;;18.41;100.00;100536.19;5114143;28;20116;-63
2023/07/28 07:30:37;;;;;;;36.92;26.23;;;;;;;18.41;100.00;100545.25;5078274;28;20113;-64
2023/07/28 07:33:04;;;;;;;35.97;26.85;;;;;;;18.40;100.00;100546.41;5113632;28;20035;-63
2023/07/28 07:35:37;;;;;;;34.00;25.98;;;;;;;18.39;100.00;100550.28;5078909;28;20050;-63
2023/07/28 07:38:08;;;;;;;35.20;25.90;;;;;;;18.40;100.00;100553.84;5113032;28;20044;-64
2023/07/28 07:40:37;;;;;;;37.60;23.23;;;;;;;18.39;100.00;100549.50;5082713;28;20496;-66
2023/07/28 07:43:05;;;;;;;33.85;22.83;;;;;;;18.39;100.00;100557.75;5094960;28;20051;-65
2023/07/28 07:45:33;;;;;;;38.95;23.05;;;;;;;18.39;100.00;100555.00;5113605;28;20051;-65
2023/07/28 07:48:01;;;;;;;36.30;24.73;;;;;;;18.39;100.00;100555.81;5111958;28;20036;-63
2023/07/28 07:50:29;;;;;;;37.97;23.98;;;;;;;18.40;100.00;100564.88;5103998;28;20476;-65
2023/07/28 07:52:57;;;;;;;36.03;28.02;;;;;;;18.41;100.00;100556.28;5075510;28;20056;-64
2023/07/28 07:55:24;;;;;;;36.90;25.77;;;;;;;18.41;100.00;100564.56;5094263;28;20506;-64
2023/07/28 07:57:52;;;;;;;38.13;24.42;;;;;;;18.42;100.00;100560.66;5096524;28;20404;-65
2023/07/28 08:00:20;;;;;;;36.17;24.35;;;;;;;18.45;100.00;100564.75;5078779;28;20507;-64
2023/07/28 08:02:48;;;;;;;33.70;23.38;;;;;;;18.48;100.00;100564.09;5117652;28;20051;-64
2023/07/28 08:05:17;;;;;;;30.52;20.58;;;;;;;18.49;100.00;100568.44;5117085;28;20044;-65
2023/07/28 08:07:45;;;;;;;30.05;22.25;;;;;;;18.48;100.00;100562.13;5082778;28;20097;-65
2023/07/28 08:10:12;;;;;;;31.10;20.55;;;;;;;18.48;100.00;100564.09;5116962;28;20399;-63
2023/07/28 08:12:41;;;;;;;32.65;25.42;;;;;;;18.48;100.00;100572.34;5116722;28;20043;-63
2023/07/28 08:15:09;;;;;;;33.60;24.45;;;;;;;18.49;100.00;100565.69;5098778;28;20510;-64
2023/07/28 08:17:37;;;;;;;36.75;25.98;;;;;;;18.49;100.00;100571.19;5116116;28;20065;-65
2023/07/28 08:20:07;;;;;;;26.70;21.05;;;;;;;18.48;100.00;100569.59;5117241;28;20073;-64
2023/07/28 08:22:34;;;;;;;31.23;23.65;;;;;;;18.48;100.00;100569.59;5099380;28;20521;-63
2023/07/28 08:25:03;;;;;;;25.73;18.40;;;;;;;18.48;100.00;100577.88;5119274;28;20051;-64
2023/07/28 08:27:31;;;;;;;28.67;22.20;;;;;;;18.49;100.00;100573.97;5117497;28;20054;-64
2023/07/28 08:29:59;;;;;;;31.73;23.65;;;;;;;18.50;100.00;100586.63;5118231;28;20502;-64
2023/07/28 08:32:27;;;;;;;29.17;19.65;;;;;;;18.51;100.00;100585.50;5119229;28;20070;-65
2023/07/28 08:34:55;;;;;;;30.48;22.55;;;;;;;18.51;100.00;100579.97;5116435;28;20048;-61
2023/07/28 08:37:23;;;;;;;27.23;21.77;;;;;;;18.51;100.00;100579.97;5115801;28;20044;-64
2023/07/28 08:39:51;;;;;;;25.02;17.02;;;;;;;18.53;100.00;100591.50;5117006;28;20035;-64
2023/07/28 08:42:22;;;;;;;28.33;20.65;;;;;;;18.52;100.00;100593.44;5116300;28;20062;-63
2023/07/28 08:44:52;;;;;;;25.45;20.30;;;;;;;18.52;100.00;100592.66;5115240;28;20065;-63
2023/07/28 08:47:21;;;;;;;27.35;17.50;;;;;;;18.52;100.00;100587.94;5116782;28;20054;-64
2023/07/28 08:49:49;;;;;;;29.67;17.80;;;;;;;18.55;100.00;100597.50;5116251;28;20050;-62
2023/07/28 08:52:18;;;;;;;30.35;18.42;;;;;;;18.56;100.00;100598.31;5099383;28;20402;-63
2023/07/28 08:54:46;;;;;;;24.95;18.25;;;;;;;18.59;100.00;100589.38;5098366;28;20397;-63
2023/07/28 08:57:14;;;;;;;25.85;16.77;;;;;;;18.62;100.00;100597.81;5116453;28;20492;-65
2023/07/28 08:59:47;;;;;;;21.33;17.88;;;;;;;18.62;100.00;100602.53;5116140;28;20145;-66
2023/07/28 09:02:17;;;;;;;23.00;16.60;;;;;;;18.61;100.00;100609.16;5098430;28;20043;-64
2023/07/28 09:04:46;;;;;;;19.83;15.50;;;;;;;18.58;100.00;100605.13;5117004;28;20093;-64
2023/07/28 09:07:14;;;;;;;30.58;19.55;;;;;;;18.59;100.00;100605.91;5097403;28;20092;-65
2023/07/28 09:09:43;;;;;;;24.92;18.40;;;;;;;18.61;100.00;100603.66;5116837;28;20055;-64
2023/07/28 09:12:11;;;;;;;25.65;18.15;;;;;;;18.62;100.00;100611.59;5116076;28;20043;-65
2023/07/28 09:14:39;;;;;;;24.95;18.08;;;;;;;18.62;100.00;100606.09;5115968;28;20047;-63
2023/07/28 09:17:11;;;;;;;23.58;17.20;;;;;;;18.64;100.00;100601.06;5115428;28;20054;-64
2023/07/28 09:19:53;;;;;;;22.95;17.58;;;;;;;18.67;100.00;100605.91;5114654;28;20063;-64
2023/07/28 09:22:21;;;;;;;23.08;17.20;;;;;;;18.71;100.00;100606.88;5077191;28;20051;-65
2023/07/28 09:24:51;;;;;;;21.10;14.93;;;;;;;18.76;100.00;100608.69;5095440;28;20055;-64
2023/07/28 09:27:24;;;;;;;22.58;18.30;;;;;;;18.84;100.00;100607.84;5078508;28;20054;-65
2023/07/28 09:29:54;;;;;;;23.83;19.08;;;;;;;18.86;100.00;100611.09;5086397;28;20051;-64
2023/07/28 09:32:33;;;;;;;25.25;19.88;;;;;;;18.90;100.00;100611.22;5099077;28;20055;-65
2023/07/28 09:35:09;;;;;;;24.05;16.13;;;;;;;18.92;100.00;100601.47;5098570;28;20047;-64
2023/07/28 09:37:40;;;;;;;24.70;18.95;;;;;;;18.98;100.00;100601.28;5082578;28;20079;-64
2023/07/28 09:40:13;;;;;;;24.17;17.55;;;;;;;19.05;100.00;100610.72;5125913;28;20044;-65
2023/07/28 09:42:49;;;;;;;23.55;16.35;;;;;;;19.10;100.00;100607.78;5123966;28;20051;-62
2023/07/28 09:45:21;;;;;;;21.70;16.15;;;;;;;19.12;100.00;100605.50;5121359;28;20044;-63
2023/07/28 09:48:09;;;;;;;22.38;16.83;;;;;;;19.13;100.00;100604.34;5121623;28;20122;-64
2023/07/28 09:50:41;;;;;;;21.98;16.90;;;;;;;19.20;100.00;100603.03;5125988;28;20115;-62
2023/07/28 09:53:12;;;;;;;23.90;19.67;;;;;;;19.25;100.00;100597.31;5125218;28;20128;-62
2023/07/28 09:55:42;;;;;;;21.98;18.15;;;;;;;19.24;100.00;100603.97;5108422;28;20110;-63
2023/07/28 09:58:12;;;;;;;20.30;17.25;;;;;;;19.24;100.00;100606.72;5126479;28;20043;-63
2023/07/28 10:00:41;;;;;;;20.55;15.05;;;;;;;19.26;100.00;100604.44;5115324;28;20077;-61
2023/07/28 10:03:09;;;;;;;29.42;20.33;;;;;;;19.27;100.00;100611.59;5116010;28;20094;-63
2023/07/28 10:05:38;;;;;;;22.13;17.45;;;;;;;19.24;100.00;100609.47;5103673;28;20095;-64
2023/07/28 10:08:06;;;;;;;25.13;19.60;;;;;;;19.24;100.00;100617.78;5094385;28;20048;-63
2023/07/28 10:10:34;;;;;;;27.10;20.65;;;;;;;19.25;100.00;100619.41;5112859;28;20048;-64
2023/07/28 10:13:02;;;;;;;25.55;19.92;;;;;;;19.28;100.00;100621.50;5096996;28;20051;-63
2023/07/28 10:15:32;;;;;;;22.27;18.58;;;;;;;19.33;100.00;100621.31;5097006;28;20052;-63
2023/07/28 10:18:00;;;;;;;25.42;20.88;;;;;;;19.35;100.00;100619.84;5113178;28;20048;-63
2023/07/28 10:20:38;;;;;;;24.48;19.50;;;;;;;19.40;100.00;100615.28;5113374;28;20050;-63
2023/07/28 10:23:37;;;;;;;27.30;21.17;;;;;;;19.44;100.00;100621.75;4757004;28;10000445;-64
2023/07/28 10:26:07;;;;;;;28.05;22.02;;;;;;;19.46;100.00;100620.28;5098007;28;20062;-64
2023/07/28 10:28:43;;;;;;;29.45;21.73;;;;;;;19.50;100.00;100625.94;5110211;28;20055;-62
2023/07/28 10:31:11;;;;;;;26.27;21.92;;;;;;;19.51;100.00;100619.28;5093203;28;20093;-66
2023/07/28 10:33:44;;;;;;;26.08;21.50;;;;;;;19.54;100.00;100627.72;5093619;28;20062;-65
2023/07/28 10:36:14;;;;;;;26.65;21.13;;;;;;;19.54;100.00;100619.41;5112373;28;20051;-65
2023/07/28 10:38:43;;;;;;;25.45;20.65;;;;;;;19.56;100.00;100621.84;5110252;28;20043;-65
2023/07/28 10:41:14;;;;;;;26.73;19.55;;;;;;;19.59;100.00;100616.47;5089549;28;20052;-63
2023/07/28 10:43:43;;;;;;;23.73;20.05;;;;;;;19.67;100.00;100613.97;5088975;28;20419;-64
2023/07/28 10:46:16;;;;;;;24.73;19.35;;;;;;;19.74;100.00;100619.81;5090203;28;20047;-64
2023/07/28 10:48:46;;;;;;;21.38;17.20;;;;;;;19.81;100.00;100609.03;5095896;28;20047;-64
2023/07/28 10:51:33;;;;;;;20.85;15.35;;;;;;;19.87;100.00;100613.25;5108944;28;20047;-64
2023/07/28 10:54:04;;;;;;;20.13;17.13;;;;;;;19.97;100.00;100617.56;5110804;28;20081;-64
2023/07/28 10:56:32;;;;;;;19.33;15.38;;;;;;;20.06;100.00;100611.94;5103797;28;20040;-62
2023/07/28 10:59:03;;;;;;;20.33;16.65;;;;;;;20.13;100.00;100621.34;5077504;28;20548;-66
2023/07/28 11:01:36;;;;;;;19.08;16.55;;;;;;;20.14;100.00;100616.63;5101716;28;20048;-65
2023/07/28 11:04:10;;;;;;;19.02;16.33;;;;;;;20.12;100.00;100618.91;5079606;28;20092;-64
2023/07/28 11:06:42;;;;;;;19.85;15.68;;;;;;;20.11;100.00;100611.78;5109999;28;20055;-64
2023/07/28 11:09:11;;;;;;;18.83;14.80;;;;;;;20.10;100.00;100618.44;5091418;28;20051;-64
2023/07/28 11:11:39;;;;;;;16.95;12.85;;;;;;;20.07;100.00;100611.63;5075474;28;20059;-64
2023/07/28 11:14:10;;;;;;;15.73;11.10;;;;;;;20.06;100.00;100614.72;5110423;28;20074;-66
2023/07/28 11:16:44;;;;;;;16.73;14.25;;;;;;;20.09;100.00;100620.41;5110699;28;20052;-65
2023/07/28 11:19:17;;;;;;;19.60;15.13;;;;;;;20.13;100.00;100618.56;5090769;28;20051;-64